createdAt,value
2022-08-28T17:05:32.809Z,27.27
2022-08-28T17:08:38.641Z,27.25
2022-08-28T17:30:44.257Z,26.73
2022-08-28T17:33:49.437Z,26.83
2022-08-28T17:36:55.093Z,26.88
2022-08-28T17:40:00.514Z,26.81
2022-08-28T19:03:23.392Z,25.31
2022-08-28T19:06:29.022Z,25.27
2022-08-28T19:09:35.036Z,25.27
2022-08-28T19:12:40.662Z,25.17
2022-08-28T19:15:53.638Z,25.14
2022-08-28T19:18:59.257Z,25.07
2022-08-28T19:22:07.542Z,25.11
2022-08-28T19:25:27.631Z,24.99
2022-08-28T19:28:35.901Z,24.93
2022-08-28T19:31:42.019Z,24.91
2022-08-28T19:34:47.279Z,24.71
2022-08-28T19:37:53.324Z,24.67
2022-08-28T19:40:59.045Z,24.49
2022-08-28T19:44:06.353Z,24.64
2022-08-28T19:47:11.831Z,24.80
2022-08-28T19:50:18.577Z,24.93
2022-08-28T19:53:24.599Z,24.98
2022-08-28T19:56:32.603Z,24.94
2022-08-28T19:59:38.441Z,24.83
2022-08-28T20:02:45.121Z,24.72
2022-08-28T20:05:51.082Z,24.70
2022-08-28T20:08:56.639Z,24.77
2022-08-28T20:12:04.773Z,24.72
2022-08-28T20:15:15.967Z,24.60
2022-08-28T20:18:24.193Z,24.57
2022-08-28T20:21:37.358Z,24.48
2022-08-28T20:24:44.152Z,24.55
2022-08-28T20:27:50.219Z,24.45
2022-08-28T20:30:55.621Z,24.39
2022-08-28T20:34:01.204Z,24.31
2022-08-28T20:37:07.017Z,24.20
2022-08-28T20:40:18.538Z,24.10
2022-08-28T20:43:24.691Z,23.95
2022-08-28T20:46:33.479Z,23.92
2022-08-28T20:49:40.701Z,23.91
2022-08-28T20:52:46.782Z,23.78
2022-08-28T20:55:56.325Z,23.71
2022-08-28T20:59:01.981Z,23.67
2022-08-28T21:02:15.561Z,23.81
2022-08-28T21:05:20.959Z,23.75
2022-08-28T21:08:26.729Z,23.78
2022-08-28T21:11:32.227Z,23.56
2022-08-28T21:14:38.015Z,23.53
2022-08-28T21:17:43.453Z,23.54
2022-08-28T21:20:49.175Z,23.55
2022-08-28T21:23:55.649Z,23.45
2022-08-28T21:27:01.137Z,23.44
2022-08-28T21:30:09.881Z,23.46
2022-08-28T21:33:15.287Z,23.28
2022-08-28T21:36:20.834Z,23.23
2022-08-28T21:39:26.980Z,22.96
2022-08-28T21:42:32.836Z,22.93
2022-08-28T21:45:38.685Z,22.90
2022-08-28T21:48:48.659Z,22.84
2022-08-28T21:51:54.222Z,22.85
2022-08-28T21:55:07.289Z,22.79
2022-08-28T21:58:12.847Z,22.86
2022-08-28T22:01:20.872Z,23.01
2022-08-28T22:04:26.715Z,23.04
2022-08-28T22:07:32.424Z,22.82
2022-08-28T22:10:41.393Z,22.75
2022-08-28T22:13:47.240Z,22.83
2022-08-28T22:16:53.057Z,22.72
2022-08-28T22:19:58.962Z,22.71
2022-08-28T22:23:10.577Z,22.71
2022-08-28T22:26:19.888Z,22.69
2022-08-28T22:29:26.542Z,22.64
2022-08-28T22:32:32.093Z,22.59
2022-08-28T22:35:38.021Z,22.77
2022-08-28T22:38:47.002Z,22.55
2022-08-28T22:41:58.871Z,22.50
2022-08-28T22:45:05.686Z,22.52
2022-08-28T22:48:11.463Z,22.61
2022-08-28T22:51:19.175Z,22.47
2022-08-28T22:54:24.966Z,22.50
2022-08-28T22:57:31.512Z,22.45
2022-08-28T23:00:40.596Z,22.24
2022-08-28T23:03:46.531Z,22.57
2022-08-28T23:06:53.791Z,22.57
2022-08-28T23:09:59.534Z,22.52
2022-08-28T23:13:05.404Z,22.58
2022-08-28T23:16:11.118Z,22.57
2022-08-28T23:19:17.451Z,22.39
2022-08-28T23:22:22.868Z,22.35
2022-08-28T23:25:28.706Z,22.38
2022-08-28T23:28:33.986Z,22.25
2022-08-28T23:31:40.037Z,22.34
2022-08-28T23:34:45.362Z,22.35
2022-08-28T23:37:51.965Z,22.41
2022-08-28T23:40:58.288Z,22.38
2022-08-28T23:44:08.227Z,22.16
2022-08-28T23:47:14.211Z,22.36
2022-08-28T23:50:22.232Z,22.27
2022-08-28T23:53:29.254Z,22.10
2022-08-28T23:56:35.130Z,22.21
2022-08-28T23:59:40.350Z,22.12
